sensor_id;sensor_type;location;lat;lon;timestamp;P1;durP1;ratioP1;P2;durP2;ratioP2
54831;SDS011;40730;53.068;6.572;2023-02-17T00:01:59;84.65;;;26.42;;
54831;SDS011;40730;53.068;6.572;2023-02-17T00:04:28;69.25;;;25.33;;
54831;SDS011;40730;53.068;6.572;2023-02-17T00:06:55;89.78;;;27.15;;
54831;SDS011;40730;53.068;6.572;2023-02-17T00:09:21;80.05;;;27.65;;
54831;SDS011;40730;53.068;6.572;2023-02-17T00:11:47;79.43;;;27.38;;
54831;SDS011;40730;53.068;6.572;2023-02-17T00:14:13;97.07;;;29.52;;
54831;SDS011;40730;53.068;6.572;2023-02-17T00:16:39;77.75;;;26.02;;
54831;SDS011;40730;53.068;6.572;2023-02-17T00:19:04;87.57;;;28.83;;
54831;SDS011;40730;53.068;6.572;2023-02-17T00:21:48;77.07;;;25.60;;
54831;SDS011;40730;53.068;6.572;2023-02-17T00:24:14;97.13;;;29.77;;
54831;SDS011;40730;53.068;6.572;2023-02-17T00:26:40;87.28;;;31.20;;
54831;SDS011;40730;53.068;6.572;2023-02-17T00:29:06;98.85;;;32.58;;
54831;SDS011;40730;53.068;6.572;2023-02-17T00:31:31;97.38;;;30.70;;
54831;SDS011;40730;53.068;6.572;2023-02-17T00:33:57;92.68;;;31.13;;
54831;SDS011;40730;53.068;6.572;2023-02-17T00:36:23;98.47;;;33.38;;
54831;SDS011;40730;53.068;6.572;2023-02-17T00:38:50;109.53;;;36.20;;
54831;SDS011;40730;53.068;6.572;2023-02-17T00:41:17;101.05;;;35.08;;
54831;SDS011;40730;53.068;6.572;2023-02-17T00:43:43;121.22;;;37.45;;
54831;SDS011;40730;53.068;6.572;2023-02-17T00:46:10;87.50;;;32.90;;
54831;SDS011;40730;53.068;6.572;2023-02-17T00:48:35;105.10;;;35.45;;
54831;SDS011;40730;53.068;6.572;2023-02-17T00:51:01;103.18;;;34.95;;
54831;SDS011;40730;53.068;6.572;2023-02-17T00:53:27;98.72;;;36.50;;
54831;SDS011;40730;53.068;6.572;2023-02-17T00:55:53;98.00;;;34.58;;
54831;SDS011;40730;53.068;6.572;2023-02-17T00:58:19;99.65;;;37.97;;
54831;SDS011;40730;53.068;6.572;2023-02-17T01:00:44;90.95;;;35.95;;
54831;SDS011;40730;53.068;6.572;2023-02-17T01:03:10;94.90;;;36.63;;
54831;SDS011;40730;53.068;6.572;2023-02-17T01:05:43;98.38;;;37.05;;
54831;SDS011;40730;53.068;6.572;2023-02-17T01:08:12;89.30;;;35.70;;
54831;SDS011;40730;53.068;6.572;2023-02-17T01:10:39;98.20;;;38.53;;
54831;SDS011;40730;53.068;6.572;2023-02-17T01:13:06;106.78;;;39.00;;
54831;SDS011;40730;53.068;6.572;2023-02-17T01:15:39;105.90;;;38.22;;
54831;SDS011;40730;53.068;6.572;2023-02-17T01:18:16;96.13;;;38.17;;
54831;SDS011;40730;53.068;6.572;2023-02-17T01:20:43;103.18;;;40.08;;
54831;SDS011;40730;53.068;6.572;2023-02-17T01:23:09;94.93;;;40.30;;
54831;SDS011;40730;53.068;6.572;2023-02-17T01:25:36;104.63;;;41.05;;
54831;SDS011;40730;53.068;6.572;2023-02-17T01:28:02;103.55;;;41.20;;
54831;SDS011;40730;53.068;6.572;2023-02-17T01:30:28;111.60;;;43.08;;
54831;SDS011;40730;53.068;6.572;2023-02-17T01:32:54;102.90;;;42.58;;
54831;SDS011;40730;53.068;6.572;2023-02-17T01:35:19;92.03;;;41.58;;
54831;SDS011;40730;53.068;6.572;2023-02-17T01:37:45;92.60;;;41.10;;
54831;SDS011;40730;53.068;6.572;2023-02-17T01:40:12;90.13;;;40.67;;
54831;SDS011;40730;53.068;6.572;2023-02-17T01:42:38;86.18;;;39.03;;
54831;SDS011;40730;53.068;6.572;2023-02-17T01:45:23;100.15;;;40.45;;
54831;SDS011;40730;53.068;6.572;2023-02-17T01:47:57;92.90;;;38.30;;
54831;SDS011;40730;53.068;6.572;2023-02-17T01:50:38;107.88;;;41.67;;
54831;SDS011;40730;53.068;6.572;2023-02-17T01:53:08;101.78;;;42.35;;
54831;SDS011;40730;53.068;6.572;2023-02-17T01:55:36;80.50;;;36.83;;
54831;SDS011;40730;53.068;6.572;2023-02-17T01:58:04;100.93;;;41.28;;
54831;SDS011;40730;53.068;6.572;2023-02-17T02:00:31;89.65;;;40.00;;
54831;SDS011;40730;53.068;6.572;2023-02-17T02:02:59;87.28;;;39.92;;
54831;SDS011;40730;53.068;6.572;2023-02-17T02:05:26;82.22;;;39.97;;
54831;SDS011;40730;53.068;6.572;2023-02-17T02:07:52;87.65;;;40.00;;
54831;SDS011;40730;53.068;6.572;2023-02-17T02:10:18;82.32;;;38.95;;
54831;SDS011;40730;53.068;6.572;2023-02-17T02:12:44;86.43;;;40.15;;
54831;SDS011;40730;53.068;6.572;2023-02-17T02:15:14;89.00;;;39.67;;
54831;SDS011;40730;53.068;6.572;2023-02-17T02:26:22;85.82;;;39.83;;
54831;SDS011;40730;53.068;6.572;2023-02-17T02:35:14;74.75;;;35.47;;
54831;SDS011;40730;53.068;6.572;2023-02-17T02:37:59;84.95;;;40.53;;
54831;SDS011;40730;53.068;6.572;2023-02-17T02:40:30;84.25;;;39.78;;
54831;SDS011;40730;53.068;6.572;2023-02-17T02:43:00;85.72;;;39.97;;
54831;SDS011;40730;53.068;6.572;2023-02-17T02:45:27;80.72;;;40.25;;
54831;SDS011;40730;53.068;6.572;2023-02-17T02:47:53;89.30;;;40.35;;
54831;SDS011;40730;53.068;6.572;2023-02-17T02:50:30;83.05;;;40.25;;
54831;SDS011;40730;53.068;6.572;2023-02-17T02:55:54;85.72;;;39.83;;
54831;SDS011;40730;53.068;6.572;2023-02-17T02:58:46;78.65;;;40.00;;
54831;SDS011;40730;53.068;6.572;2023-02-17T03:01:34;90.07;;;40.60;;
54831;SDS011;40730;53.068;6.572;2023-02-17T03:07:04;84.65;;;38.20;;
54831;SDS011;40730;53.068;6.572;2023-02-17T03:09:45;90.90;;;40.80;;
54831;SDS011;40730;53.068;6.572;2023-02-17T03:12:18;88.63;;;40.25;;
54831;SDS011;40730;53.068;6.572;2023-02-17T03:14:45;86.35;;;39.67;;
54831;SDS011;40730;53.068;6.572;2023-02-17T03:17:13;80.88;;;36.38;;
54831;SDS011;40730;53.068;6.572;2023-02-17T03:19:38;80.22;;;37.03;;
54831;SDS011;40730;53.068;6.572;2023-02-17T03:22:13;82.55;;;39.38;;
54831;SDS011;40730;53.068;6.572;2023-02-17T03:24:45;86.72;;;36.92;;
54831;SDS011;40730;53.068;6.572;2023-02-17T03:27:11;61.38;;;28.85;;
54831;SDS011;40730;53.068;6.572;2023-02-17T03:29:36;72.80;;;33.45;;
54831;SDS011;40730;53.068;6.572;2023-02-17T03:32:02;78.30;;;35.33;;
54831;SDS011;40730;53.068;6.572;2023-02-17T03:34:28;85.55;;;36.88;;
54831;SDS011;40730;53.068;6.572;2023-02-17T03:36:53;76.78;;;34.65;;
54831;SDS011;40730;53.068;6.572;2023-02-17T03:39:19;76.95;;;33.30;;
54831;SDS011;40730;53.068;6.572;2023-02-17T03:41:45;77.15;;;36.45;;
54831;SDS011;40730;53.068;6.572;2023-02-17T03:44:10;61.35;;;32.85;;
54831;SDS011;40730;53.068;6.572;2023-02-17T03:46:37;66.22;;;32.72;;
54831;SDS011;40730;53.068;6.572;2023-02-17T03:49:04;63.53;;;32.22;;
54831;SDS011;40730;53.068;6.572;2023-02-17T03:51:30;66.95;;;33.88;;
54831;SDS011;40730;53.068;6.572;2023-02-17T03:53:56;69.53;;;33.05;;
54831;SDS011;40730;53.068;6.572;2023-02-17T03:56:21;68.72;;;32.72;;
54831;SDS011;40730;53.068;6.572;2023-02-17T03:58:47;65.30;;;33.00;;
54831;SDS011;40730;53.068;6.572;2023-02-17T04:01:13;66.32;;;33.15;;
54831;SDS011;40730;53.068;6.572;2023-02-17T04:03:39;62.92;;;30.80;;
54831;SDS011;40730;53.068;6.572;2023-02-17T04:06:06;60.03;;;30.65;;
54831;SDS011;40730;53.068;6.572;2023-02-17T04:08:32;58.25;;;29.02;;
54831;SDS011;40730;53.068;6.572;2023-02-17T04:10:58;58.17;;;28.05;;
54831;SDS011;40730;53.068;6.572;2023-02-17T04:13:26;56.38;;;28.77;;
54831;SDS011;40730;53.068;6.572;2023-02-17T04:15:52;56.97;;;29.38;;
54831;SDS011;40730;53.068;6.572;2023-02-17T04:18:18;55.83;;;29.17;;
54831;SDS011;40730;53.068;6.572;2023-02-17T04:20:46;50.17;;;25.35;;
54831;SDS011;40730;53.068;6.572;2023-02-17T04:23:13;49.88;;;25.58;;
54831;SDS011;40730;53.068;6.572;2023-02-17T04:25:39;45.88;;;24.50;;
54831;SDS011;40730;53.068;6.572;2023-02-17T04:28:05;46.50;;;25.70;;
54831;SDS011;40730;53.068;6.572;2023-02-17T04:30:31;48.42;;;23.58;;
54831;SDS011;40730;53.068;6.572;2023-02-17T04:32:57;54.13;;;28.20;;
54831;SDS011;40730;53.068;6.572;2023-02-17T04:35:24;51.10;;;25.83;;
54831;SDS011;40730;53.068;6.572;2023-02-17T04:37:49;49.17;;;26.10;;
54831;SDS011;40730;53.068;6.572;2023-02-17T04:40:15;48.60;;;26.45;;
54831;SDS011;40730;53.068;6.572;2023-02-17T04:42:41;48.03;;;25.42;;
54831;SDS011;40730;53.068;6.572;2023-02-17T04:45:07;52.58;;;25.35;;
54831;SDS011;40730;53.068;6.572;2023-02-17T04:47:33;53.10;;;25.38;;
54831;SDS011;40730;53.068;6.572;2023-02-17T04:49:59;53.13;;;25.00;;
54831;SDS011;40730;53.068;6.572;2023-02-17T04:52:25;56.67;;;25.98;;
54831;SDS011;40730;53.068;6.572;2023-02-17T04:54:51;56.67;;;26.50;;
54831;SDS011;40730;53.068;6.572;2023-02-17T04:57:16;55.05;;;26.35;;
54831;SDS011;40730;53.068;6.572;2023-02-17T04:59:42;56.45;;;27.52;;
54831;SDS011;40730;53.068;6.572;2023-02-17T05:02:08;55.55;;;26.75;;
54831;SDS011;40730;53.068;6.572;2023-02-17T05:04:34;53.92;;;26.63;;
54831;SDS011;40730;53.068;6.572;2023-02-17T05:07:00;62.25;;;28.52;;
54831;SDS011;40730;53.068;6.572;2023-02-17T05:09:26;58.80;;;26.02;;
54831;SDS011;40730;53.068;6.572;2023-02-17T05:11:51;58.40;;;25.88;;
54831;SDS011;40730;53.068;6.572;2023-02-17T05:14:17;58.80;;;26.67;;
54831;SDS011;40730;53.068;6.572;2023-02-17T05:16:43;51.60;;;24.60;;
54831;SDS011;40730;53.068;6.572;2023-02-17T05:19:08;52.38;;;26.55;;
54831;SDS011;40730;53.068;6.572;2023-02-17T05:21:34;52.67;;;24.85;;
54831;SDS011;40730;53.068;6.572;2023-02-17T05:24:00;49.53;;;22.92;;
54831;SDS011;40730;53.068;6.572;2023-02-17T05:26:25;51.20;;;23.17;;
54831;SDS011;40730;53.068;6.572;2023-02-17T05:28:51;60.88;;;25.83;;
54831;SDS011;40730;53.068;6.572;2023-02-17T05:31:17;56.92;;;24.27;;
54831;SDS011;40730;53.068;6.572;2023-02-17T05:33:42;67.90;;;28.27;;
54831;SDS011;40730;53.068;6.572;2023-02-17T05:36:09;67.65;;;27.13;;
54831;SDS011;40730;53.068;6.572;2023-02-17T05:38:35;66.32;;;27.02;;
54831;SDS011;40730;53.068;6.572;2023-02-17T05:41:02;60.97;;;25.38;;
54831;SDS011;40730;53.068;6.572;2023-02-17T05:43:28;54.67;;;23.83;;
54831;SDS011;40730;53.068;6.572;2023-02-17T05:45:53;55.50;;;22.77;;
54831;SDS011;40730;53.068;6.572;2023-02-17T05:48:19;58.53;;;24.92;;
54831;SDS011;40730;53.068;6.572;2023-02-17T05:50:44;63.13;;;25.55;;
54831;SDS011;40730;53.068;6.572;2023-02-17T05:53:10;65.90;;;25.77;;
54831;SDS011;40730;53.068;6.572;2023-02-17T05:55:37;71.25;;;26.48;;
54831;SDS011;40730;53.068;6.572;2023-02-17T05:58:03;60.75;;;26.50;;
54831;SDS011;40730;53.068;6.572;2023-02-17T06:00:29;61.15;;;25.95;;
54831;SDS011;40730;53.068;6.572;2023-02-17T06:02:54;72.10;;;30.02;;
54831;SDS011;40730;53.068;6.572;2023-02-17T06:05:20;74.50;;;32.13;;
54831;SDS011;40730;53.068;6.572;2023-02-17T06:07:46;87.80;;;34.97;;
54831;SDS011;40730;53.068;6.572;2023-02-17T06:10:11;86.38;;;34.25;;
54831;SDS011;40730;53.068;6.572;2023-02-17T06:12:37;82.68;;;32.03;;
54831;SDS011;40730;53.068;6.572;2023-02-17T06:15:03;85.78;;;34.28;;
54831;SDS011;40730;53.068;6.572;2023-02-17T06:17:28;76.53;;;33.47;;
54831;SDS011;40730;53.068;6.572;2023-02-17T06:19:54;84.28;;;33.75;;
54831;SDS011;40730;53.068;6.572;2023-02-17T06:22:19;87.80;;;32.33;;
54831;SDS011;40730;53.068;6.572;2023-02-17T06:24:45;82.45;;;33.85;;
54831;SDS011;40730;53.068;6.572;2023-02-17T06:27:11;79.18;;;33.50;;
54831;SDS011;40730;53.068;6.572;2023-02-17T06:29:36;79.00;;;32.28;;
54831;SDS011;40730;53.068;6.572;2023-02-17T06:32:02;79.10;;;32.88;;
54831;SDS011;40730;53.068;6.572;2023-02-17T06:34:28;78.95;;;34.10;;
54831;SDS011;40730;53.068;6.572;2023-02-17T06:36:53;87.53;;;33.22;;
54831;SDS011;40730;53.068;6.572;2023-02-17T06:39:19;91.50;;;36.58;;
54831;SDS011;40730;53.068;6.572;2023-02-17T06:41:45;80.05;;;31.95;;
54831;SDS011;40730;53.068;6.572;2023-02-17T06:44:11;90.47;;;35.65;;
54831;SDS011;40730;53.068;6.572;2023-02-17T06:46:37;72.13;;;30.35;;
54831;SDS011;40730;53.068;6.572;2023-02-17T06:49:02;80.75;;;32.33;;
54831;SDS011;40730;53.068;6.572;2023-02-17T06:51:29;83.35;;;33.78;;
54831;SDS011;40730;53.068;6.572;2023-02-17T06:53:54;83.32;;;32.92;;
54831;SDS011;40730;53.068;6.572;2023-02-17T06:56:20;89.45;;;35.45;;
54831;SDS011;40730;53.068;6.572;2023-02-17T06:58:46;78.45;;;32.53;;
54831;SDS011;40730;53.068;6.572;2023-02-17T07:01:16;82.10;;;33.33;;
54831;SDS011;40730;53.068;6.572;2023-02-17T07:03:44;88.13;;;32.60;;
54831;SDS011;40730;53.068;6.572;2023-02-17T07:06:09;87.72;;;34.15;;
54831;SDS011;40730;53.068;6.572;2023-02-17T07:08:35;85.63;;;32.88;;
54831;SDS011;40730;53.068;6.572;2023-02-17T07:11:07;87.72;;;33.47;;
54831;SDS011;40730;53.068;6.572;2023-02-17T07:13:35;81.47;;;32.85;;
54831;SDS011;40730;53.068;6.572;2023-02-17T07:16:02;83.50;;;33.92;;
54831;SDS011;40730;53.068;6.572;2023-02-17T07:18:27;74.00;;;30.90;;
54831;SDS011;40730;53.068;6.572;2023-02-17T07:20:53;83.07;;;31.05;;
54831;SDS011;40730;53.068;6.572;2023-02-17T07:23:19;81.70;;;32.30;;
54831;SDS011;40730;53.068;6.572;2023-02-17T07:25:44;78.93;;;31.30;;
54831;SDS011;40730;53.068;6.572;2023-02-17T07:28:10;77.65;;;30.00;;
54831;SDS011;40730;53.068;6.572;2023-02-17T07:30:36;83.22;;;31.52;;
54831;SDS011;40730;53.068;6.572;2023-02-17T07:33:03;90.30;;;32.03;;
54831;SDS011;40730;53.068;6.572;2023-02-17T07:35:28;87.68;;;33.28;;
54831;SDS011;40730;53.068;6.572;2023-02-17T07:37:55;90.05;;;31.77;;
54831;SDS011;40730;53.068;6.572;2023-02-17T07:40:22;78.05;;;33.40;;
54831;SDS011;40730;53.068;6.572;2023-02-17T07:42:47;76.75;;;32.78;;
54831;SDS011;40730;53.068;6.572;2023-02-17T07:45:13;81.63;;;31.95;;
54831;SDS011;40730;53.068;6.572;2023-02-17T07:47:39;77.07;;;30.60;;
54831;SDS011;40730;53.068;6.572;2023-02-17T07:50:05;78.43;;;32.75;;
54831;SDS011;40730;53.068;6.572;2023-02-17T07:52:31;81.22;;;32.17;;
54831;SDS011;40730;53.068;6.572;2023-02-17T07:54:57;77.32;;;33.92;;
54831;SDS011;40730;53.068;6.572;2023-02-17T07:57:22;75.60;;;31.02;;
54831;SDS011;40730;53.068;6.572;2023-02-17T07:59:48;75.78;;;31.73;;
54831;SDS011;40730;53.068;6.572;2023-02-17T08:02:13;77.30;;;30.98;;
54831;SDS011;40730;53.068;6.572;2023-02-17T08:04:39;73.13;;;29.60;;
54831;SDS011;40730;53.068;6.572;2023-02-17T08:07:05;72.05;;;27.40;;
54831;SDS011;40730;53.068;6.572;2023-02-17T08:09:30;74.15;;;31.52;;
54831;SDS011;40730;53.068;6.572;2023-02-17T08:12:15;75.93;;;31.50;;
54831;SDS011;40730;53.068;6.572;2023-02-17T08:15:01;66.47;;;27.75;;
54831;SDS011;40730;53.068;6.572;2023-02-17T08:17:28;70.55;;;30.77;;
54831;SDS011;40730;53.068;6.572;2023-02-17T08:19:54;68.70;;;27.67;;
54831;SDS011;40730;53.068;6.572;2023-02-17T08:22:20;58.17;;;27.20;;
54831;SDS011;40730;53.068;6.572;2023-02-17T08:24:45;61.50;;;27.80;;
54831;SDS011;40730;53.068;6.572;2023-02-17T08:27:12;60.50;;;23.77;;
54831;SDS011;40730;53.068;6.572;2023-02-17T08:29:38;69.05;;;28.73;;
54831;SDS011;40730;53.068;6.572;2023-02-17T08:32:04;51.03;;;24.60;;
54831;SDS011;40730;53.068;6.572;2023-02-17T08:34:30;67.32;;;28.33;;
54831;SDS011;40730;53.068;6.572;2023-02-17T08:36:59;57.53;;;25.48;;
54831;SDS011;40730;53.068;6.572;2023-02-17T08:39:25;52.35;;;24.42;;
54831;SDS011;40730;53.068;6.572;2023-02-17T08:41:51;48.60;;;22.83;;
54831;SDS011;40730;53.068;6.572;2023-02-17T08:44:17;50.60;;;22.40;;
54831;SDS011;40730;53.068;6.572;2023-02-17T08:46:45;56.95;;;22.63;;
54831;SDS011;40730;53.068;6.572;2023-02-17T08:49:12;45.75;;;21.33;;
54831;SDS011;40730;53.068;6.572;2023-02-17T08:51:38;37.97;;;18.77;;
54831;SDS011;40730;53.068;6.572;2023-02-17T08:54:04;42.08;;;20.55;;
54831;SDS011;40730;53.068;6.572;2023-02-17T08:56:31;42.60;;;19.05;;
54831;SDS011;40730;53.068;6.572;2023-02-17T08:58:58;40.15;;;19.42;;
54831;SDS011;40730;53.068;6.572;2023-02-17T09:01:24;38.70;;;18.98;;
54831;SDS011;40730;53.068;6.572;2023-02-17T09:03:50;31.80;;;17.80;;
54831;SDS011;40730;53.068;6.572;2023-02-17T09:06:18;39.40;;;18.80;;
54831;SDS011;40730;53.068;6.572;2023-02-17T09:08:45;33.25;;;15.73;;
54831;SDS011;40730;53.068;6.572;2023-02-17T09:11:11;35.00;;;16.52;;
54831;SDS011;40730;53.068;6.572;2023-02-17T09:13:39;31.02;;;17.55;;
54831;SDS011;40730;53.068;6.572;2023-02-17T09:16:05;32.22;;;17.08;;
54831;SDS011;40730;53.068;6.572;2023-02-17T09:18:31;37.58;;;16.92;;
54831;SDS011;40730;53.068;6.572;2023-02-17T09:20:56;32.55;;;16.55;;
54831;SDS011;40730;53.068;6.572;2023-02-17T09:23:24;27.55;;;14.88;;
54831;SDS011;40730;53.068;6.572;2023-02-17T09:25:59;30.27;;;16.23;;
54831;SDS011;40730;53.068;6.572;2023-02-17T09:28:29;29.55;;;14.63;;
54831;SDS011;40730;53.068;6.572;2023-02-17T09:30:55;34.03;;;14.68;;
54831;SDS011;40730;53.068;6.572;2023-02-17T09:33:20;31.45;;;15.95;;
54831;SDS011;40730;53.068;6.572;2023-02-17T09:35:46;28.52;;;12.43;;
54831;SDS011;40730;53.068;6.572;2023-02-17T09:38:13;27.67;;;14.65;;
54831;SDS011;40730;53.068;6.572;2023-02-17T09:43:16;27.60;;;13.77;;
54831;SDS011;40730;53.068;6.572;2023-02-17T09:45:50;24.55;;;12.15;;
54831;SDS011;40730;53.068;6.572;2023-02-17T09:48:20;25.48;;;13.80;;
54831;SDS011;40730;53.068;6.572;2023-02-17T09:56:13;22.88;;;12.65;;
54831;SDS011;40730;53.068;6.572;2023-02-17T09:58:46;31.48;;;12.93;;
54831;SDS011;40730;53.068;6.572;2023-02-17T10:01:18;28.15;;;11.85;;
54831;SDS011;40730;53.068;6.572;2023-02-17T10:03:51;24.48;;;13.18;;
54831;SDS011;40730;53.068;6.572;2023-02-17T10:06:30;26.58;;;12.00;;
54831;SDS011;40730;53.068;6.572;2023-02-17T10:08:58;25.23;;;13.50;;
54831;SDS011;40730;53.068;6.572;2023-02-17T10:17:07;19.67;;;10.23;;
54831;SDS011;40730;53.068;6.572;2023-02-17T10:19:40;30.33;;;11.82;;
54831;SDS011;40730;53.068;6.572;2023-02-17T10:22:19;24.98;;;11.50;;
54831;SDS011;40730;53.068;6.572;2023-02-17T10:24:46;22.02;;;10.65;;
54831;SDS011;40730;53.068;6.572;2023-02-17T10:41:18;19.13;;;9.48;;
54831;SDS011;40730;53.068;6.572;2023-02-17T10:43:49;18.55;;;7.85;;
54831;SDS011;40730;53.068;6.572;2023-02-17T10:46:16;20.13;;;8.85;;
54831;SDS011;40730;53.068;6.572;2023-02-17T10:48:52;19.02;;;8.65;;
54831;SDS011;40730;53.068;6.572;2023-02-17T10:51:29;16.50;;;7.88;;
54831;SDS011;40730;53.068;6.572;2023-02-17T10:54:06;15.07;;;7.88;;
54831;SDS011;40730;53.068;6.572;2023-02-17T10:56:44;17.60;;;6.95;;
54831;SDS011;40730;53.068;6.572;2023-02-17T11:01:40;17.25;;;7.78;;
54831;SDS011;40730;53.068;6.572;2023-02-17T11:04:07;15.38;;;6.68;;
54831;SDS011;40730;53.068;6.572;2023-02-17T11:06:35;12.55;;;4.28;;
54831;SDS011;40730;53.068;6.572;2023-02-17T11:09:22;12.80;;;6.15;;
54831;SDS011;40730;53.068;6.572;2023-02-17T11:12:09;17.35;;;6.45;;
54831;SDS011;40730;53.068;6.572;2023-02-17T11:14:37;15.25;;;6.25;;
54831;SDS011;40730;53.068;6.572;2023-02-17T11:17:14;17.30;;;5.72;;
54831;SDS011;40730;53.068;6.572;2023-02-17T11:22:31;16.75;;;5.47;;
54831;SDS011;40730;53.068;6.572;2023-02-17T11:25:26;16.35;;;6.18;;
54831;SDS011;40730;53.068;6.572;2023-02-17T11:27:55;15.40;;;5.30;;
54831;SDS011;40730;53.068;6.572;2023-02-17T11:30:23;10.52;;;5.50;;
54831;SDS011;40730;53.068;6.572;2023-02-17T11:32:51;14.05;;;4.55;;
54831;SDS011;40730;53.068;6.572;2023-02-17T11:38:00;13.40;;;4.88;;
54831;SDS011;40730;53.068;6.572;2023-02-17T11:40:28;13.50;;;5.38;;
54831;SDS011;40730;53.068;6.572;2023-02-17T11:42:59;10.18;;;4.55;;
54831;SDS011;40730;53.068;6.572;2023-02-17T11:45:28;13.25;;;4.07;;
54831;SDS011;40730;53.068;6.572;2023-02-17T11:48:11;12.30;;;4.78;;
54831;SDS011;40730;53.068;6.572;2023-02-17T11:50:47;14.02;;;4.75;;
54831;SDS011;40730;53.068;6.572;2023-02-17T11:53:38;12.10;;;3.88;;
54831;SDS011;40730;53.068;6.572;2023-02-17T11:56:33;12.02;;;4.15;;
54831;SDS011;40730;53.068;6.572;2023-02-17T12:04:53;12.88;;;3.08;;
54831;SDS011;40730;53.068;6.572;2023-02-17T12:07:51;12.15;;;2.55;;
54831;SDS011;40730;53.068;6.572;2023-02-17T12:13:20;13.45;;;2.53;;
54831;SDS011;40730;53.068;6.572;2023-02-17T12:21:57;6.32;;;1.70;;
54831;SDS011;40730;53.068;6.572;2023-02-17T12:24:52;9.23;;;1.33;;
54831;SDS011;40730;53.068;6.572;2023-02-17T12:35:40;8.68;;;1.20;;
54831;SDS011;40730;53.068;6.572;2023-02-17T12:38:29;9.02;;;1.25;;
54831;SDS011;40730;53.068;6.572;2023-02-17T12:41:10;7.15;;;0.80;;
54831;SDS011;40730;53.068;6.572;2023-02-17T12:43:46;8.10;;;1.38;;
54831;SDS011;40730;53.068;6.572;2023-02-17T12:46:22;5.63;;;1.00;;
54831;SDS011;40730;53.068;6.572;2023-02-17T12:49:42;7.10;;;0.90;;
54831;SDS011;40730;53.068;6.572;2023-02-17T12:51:41;6.88;;;0.98;;
54831;SDS011;40730;53.068;6.572;2023-02-17T12:54:17;11.45;;;1.10;;
54831;SDS011;40730;53.068;6.572;2023-02-17T13:02:15;5.20;;;0.70;;
54831;SDS011;40730;53.068;6.572;2023-02-17T13:04:47;6.82;;;0.95;;
54831;SDS011;40730;53.068;6.572;2023-02-17T13:10:27;4.55;;;0.80;;
54831;SDS011;40730;53.068;6.572;2023-02-17T13:12:59;6.63;;;0.80;;
54831;SDS011;40730;53.068;6.572;2023-02-17T13:17:57;5.78;;;1.25;;
54831;SDS011;40730;53.068;6.572;2023-02-17T13:23:34;6.10;;;1.00;;
54831;SDS011;40730;53.068;6.572;2023-02-17T13:26:05;7.95;;;0.75;;
54831;SDS011;40730;53.068;6.572;2023-02-17T13:28:40;3.28;;;0.70;;
54831;SDS011;40730;53.068;6.572;2023-02-17T13:31:14;6.57;;;0.90;;
54831;SDS011;40730;53.068;6.572;2023-02-17T13:33:42;6.38;;;1.08;;
54831;SDS011;40730;53.068;6.572;2023-02-17T13:36:15;8.95;;;0.88;;
54831;SDS011;40730;53.068;6.572;2023-02-17T13:38:53;3.33;;;0.73;;
54831;SDS011;40730;53.068;6.572;2023-02-17T13:41:23;7.22;;;0.90;;
54831;SDS011;40730;53.068;6.572;2023-02-17T13:43:50;10.93;;;0.85;;
54831;SDS011;40730;53.068;6.572;2023-02-17T13:46:18;8.10;;;0.93;;
54831;SDS011;40730;53.068;6.572;2023-02-17T13:48:58;6.45;;;0.68;;
54831;SDS011;40730;53.068;6.572;2023-02-17T13:51:29;7.82;;;1.08;;
54831;SDS011;40730;53.068;6.572;2023-02-17T13:54:02;7.10;;;0.70;;
54831;SDS011;40730;53.068;6.572;2023-02-17T13:56:30;7.05;;;1.00;;
54831;SDS011;40730;53.068;6.572;2023-02-17T13:59:06;8.38;;;0.80;;
54831;SDS011;40730;53.068;6.572;2023-02-17T14:01:41;5.30;;;0.70;;
54831;SDS011;40730;53.068;6.572;2023-02-17T14:04:18;7.22;;;0.90;;
54831;SDS011;40730;53.068;6.572;2023-02-17T14:06:49;9.25;;;1.38;;
54831;SDS011;40730;53.068;6.572;2023-02-17T14:09:20;11.38;;;1.23;;
54831;SDS011;40730;53.068;6.572;2023-02-17T14:11:49;5.35;;;0.77;;
54831;SDS011;40730;53.068;6.572;2023-02-17T14:14:15;4.53;;;0.73;;
54831;SDS011;40730;53.068;6.572;2023-02-17T14:16:42;5.63;;;0.55;;
54831;SDS011;40730;53.068;6.572;2023-02-17T14:19:12;4.82;;;0.50;;
54831;SDS011;40730;53.068;6.572;2023-02-17T14:21:44;7.75;;;0.80;;
54831;SDS011;40730;53.068;6.572;2023-02-17T14:26:59;7.53;;;0.77;;
54831;SDS011;40730;53.068;6.572;2023-02-17T14:29:42;9.05;;;0.93;;
54831;SDS011;40730;53.068;6.572;2023-02-17T14:32:31;8.10;;;0.95;;
54831;SDS011;40730;53.068;6.572;2023-02-17T14:37:36;6.00;;;1.10;;
54831;SDS011;40730;53.068;6.572;2023-02-17T14:40:03;10.98;;;0.90;;
54831;SDS011;40730;53.068;6.572;2023-02-17T14:42:30;4.53;;;0.82;;
54831;SDS011;40730;53.068;6.572;2023-02-17T14:44:56;10.82;;;1.13;;
54831;SDS011;40730;53.068;6.572;2023-02-17T14:47:21;10.18;;;1.17;;
54831;SDS011;40730;53.068;6.572;2023-02-17T14:49:47;8.88;;;1.13;;
54831;SDS011;40730;53.068;6.572;2023-02-17T14:52:20;7.65;;;1.05;;
54831;SDS011;40730;53.068;6.572;2023-02-17T14:54:47;11.73;;;1.57;;
54831;SDS011;40730;53.068;6.572;2023-02-17T14:57:14;8.52;;;1.20;;
54831;SDS011;40730;53.068;6.572;2023-02-17T14:59:40;8.80;;;0.88;;
54831;SDS011;40730;53.068;6.572;2023-02-17T15:02:14;10.45;;;1.52;;
54831;SDS011;40730;53.068;6.572;2023-02-17T15:04:44;10.90;;;1.75;;
54831;SDS011;40730;53.068;6.572;2023-02-17T15:07:14;10.95;;;1.63;;
54831;SDS011;40730;53.068;6.572;2023-02-17T15:09:42;11.35;;;1.35;;
54831;SDS011;40730;53.068;6.572;2023-02-17T15:12:14;13.48;;;1.30;;
54831;SDS011;40730;53.068;6.572;2023-02-17T15:14:42;7.30;;;1.20;;
54831;SDS011;40730;53.068;6.572;2023-02-17T15:17:08;13.27;;;1.52;;
54831;SDS011;40730;53.068;6.572;2023-02-17T15:19:34;13.20;;;1.17;;
54831;SDS011;40730;53.068;6.572;2023-02-17T15:21:59;11.07;;;1.35;;
54831;SDS011;40730;53.068;6.572;2023-02-17T15:24:29;14.77;;;1.88;;
54831;SDS011;40730;53.068;6.572;2023-02-17T15:26:57;10.23;;;1.02;;
54831;SDS011;40730;53.068;6.572;2023-02-17T15:29:23;7.95;;;0.70;;
54831;SDS011;40730;53.068;6.572;2023-02-17T15:31:51;9.85;;;0.73;;
54831;SDS011;40730;53.068;6.572;2023-02-17T15:34:19;11.30;;;0.80;;
54831;SDS011;40730;53.068;6.572;2023-02-17T15:36:47;11.80;;;0.52;;
54831;SDS011;40730;53.068;6.572;2023-02-17T15:39:13;12.93;;;1.48;;
54831;SDS011;40730;53.068;6.572;2023-02-17T15:41:40;9.88;;;1.00;;
54831;SDS011;40730;53.068;6.572;2023-02-17T15:44:11;12.05;;;1.42;;
54831;SDS011;40730;53.068;6.572;2023-02-17T15:46:43;12.57;;;1.30;;
54831;SDS011;40730;53.068;6.572;2023-02-17T15:49:10;9.05;;;0.82;;
54831;SDS011;40730;53.068;6.572;2023-02-17T15:51:37;10.43;;;0.98;;
54831;SDS011;40730;53.068;6.572;2023-02-17T15:54:03;12.57;;;0.68;;
54831;SDS011;40730;53.068;6.572;2023-02-17T15:56:30;8.52;;;0.63;;
54831;SDS011;40730;53.068;6.572;2023-02-17T15:59:03;8.70;;;0.85;;
54831;SDS011;40730;53.068;6.572;2023-02-17T16:01:33;8.05;;;0.93;;
54831;SDS011;40730;53.068;6.572;2023-02-17T16:03:59;12.13;;;0.80;;
54831;SDS011;40730;53.068;6.572;2023-02-17T16:06:25;9.52;;;1.10;;
54831;SDS011;40730;53.068;6.572;2023-02-17T16:08:52;7.68;;;0.82;;
54831;SDS011;40730;53.068;6.572;2023-02-17T16:11:19;15.25;;;1.30;;
54831;SDS011;40730;53.068;6.572;2023-02-17T16:13:46;9.73;;;0.70;;
54831;SDS011;40730;53.068;6.572;2023-02-17T16:18:41;8.73;;;0.88;;
54831;SDS011;40730;53.068;6.572;2023-02-17T16:21:08;13.43;;;1.60;;